sensor_id;sensor_type;location;lat;lon;timestamp;pressure;altitude;pressure_sealevel;temperature;humidity
42519;BME280;28147;47.520;18.920;2023-07-24T00:02:21;98230.13;;;26.20;52.63
42519;BME280;28147;47.520;18.920;2023-07-24T00:04:47;98234.25;;;26.26;53.02
42519;BME280;28147;47.520;18.920;2023-07-24T00:07:12;98230.47;;;26.31;52.72
42519;BME280;28147;47.520;18.920;2023-07-24T00:09:38;98227.06;;;26.22;53.01
42519;BME280;28147;47.520;18.920;2023-07-24T00:12:03;98222.97;;;26.40;52.25
42519;BME280;28147;47.520;18.920;2023-07-24T00:14:29;98229.25;;;26.40;52.62
42519;BME280;28147;47.520;18.920;2023-07-24T00:16:54;98224.56;;;26.16;52.92
42519;BME280;28147;47.520;18.920;2023-07-24T00:19:19;98226.59;;;26.19;53.10
42519;BME280;28147;47.520;18.920;2023-07-24T00:21:45;98220.13;;;26.24;53.29
42519;BME280;28147;47.520;18.920;2023-07-24T00:24:10;98225.56;;;26.24;53.14
42519;BME280;28147;47.520;18.920;2023-07-24T00:26:36;98225.47;;;26.20;53.34
42519;BME280;28147;47.520;18.920;2023-07-24T00:29:01;98218.19;;;26.12;53.45
42519;BME280;28147;47.520;18.920;2023-07-24T00:31:27;98220.91;;;26.25;53.47
42519;BME280;28147;47.520;18.920;2023-07-24T00:33:52;98209.31;;;26.15;53.61
42519;BME280;28147;47.520;18.920;2023-07-24T00:36:17;98209.00;;;26.29;53.36
42519;BME280;28147;47.520;18.920;2023-07-24T00:38:43;98200.47;;;26.18;53.24
42519;BME280;28147;47.520;18.920;2023-07-24T00:41:08;98204.66;;;26.16;53.49
42519;BME280;28147;47.520;18.920;2023-07-24T00:43:34;98207.03;;;26.17;53.94
42519;BME280;28147;47.520;18.920;2023-07-24T00:45:59;98210.22;;;26.32;53.35
42519;BME280;28147;47.520;18.920;2023-07-24T00:48:25;98198.66;;;26.23;53.70
42519;BME280;28147;47.520;18.920;2023-07-24T00:50:51;98197.75;;;26.18;54.08
42519;BME280;28147;47.520;18.920;2023-07-24T00:53:17;98193.28;;;26.02;54.16
42519;BME280;28147;47.520;18.920;2023-07-24T00:55:44;98184.06;;;25.94;54.65
42519;BME280;28147;47.520;18.920;2023-07-24T00:58:13;98180.34;;;26.11;54.22
42519;BME280;28147;47.520;18.920;2023-07-24T01:00:39;98181.91;;;26.24;53.59
42519;BME280;28147;47.520;18.920;2023-07-24T01:03:05;98184.06;;;26.43;53.08
42519;BME280;28147;47.520;18.920;2023-07-24T01:05:31;98179.06;;;26.45;53.33
42519;BME280;28147;47.520;18.920;2023-07-24T01:07:57;98183.63;;;26.16;53.94
42519;BME280;28147;47.520;18.920;2023-07-24T01:10:22;98181.13;;;26.24;54.02
42519;BME280;28147;47.520;18.920;2023-07-24T01:15:48;98184.66;;;26.49;53.45
42519;BME280;28147;47.520;18.920;2023-07-24T01:18:16;98190.78;;;26.58;53.12
42519;BME280;28147;47.520;18.920;2023-07-24T01:20:51;98187.94;;;26.42;53.40
42519;BME280;28147;47.520;18.920;2023-07-24T01:26:21;98178.97;;;26.29;54.16
42519;BME280;28147;47.520;18.920;2023-07-24T01:28:49;98184.78;;;26.15;54.42
42519;BME280;28147;47.520;18.920;2023-07-24T01:31:14;98174.09;;;26.23;54.15
42519;BME280;28147;47.520;18.920;2023-07-24T01:33:42;98184.22;;;26.22;54.18
42519;BME280;28147;47.520;18.920;2023-07-24T01:36:07;98178.53;;;26.15;54.47
42519;BME280;28147;47.520;18.920;2023-07-24T01:38:34;98170.53;;;26.10;54.59
42519;BME280;28147;47.520;18.920;2023-07-24T01:41:00;98171.81;;;26.12;54.34
42519;BME280;28147;47.520;18.920;2023-07-24T01:43:26;98163.03;;;25.94;54.68
42519;BME280;28147;47.520;18.920;2023-07-24T01:45:52;98171.69;;;25.96;55.00
42519;BME280;28147;47.520;18.920;2023-07-24T01:48:18;98177.38;;;25.91;54.94
42519;BME280;28147;47.520;18.920;2023-07-24T01:50:43;98173.41;;;26.01;54.95
42519;BME280;28147;47.520;18.920;2023-07-24T01:53:09;98181.81;;;25.96;54.57
42519;BME280;28147;47.520;18.920;2023-07-24T01:55:34;98169.09;;;25.88;54.92
42519;BME280;28147;47.520;18.920;2023-07-24T01:58:00;98176.75;;;25.73;55.56
42519;BME280;28147;47.520;18.920;2023-07-24T02:00:25;98167.63;;;26.03;54.79
42519;BME280;28147;47.520;18.920;2023-07-24T02:02:51;98165.56;;;26.12;54.41
42519;BME280;28147;47.520;18.920;2023-07-24T02:05:16;98169.63;;;26.06;54.62
42519;BME280;28147;47.520;18.920;2023-07-24T02:07:42;98170.66;;;26.01;55.00
42519;BME280;28147;47.520;18.920;2023-07-24T02:10:07;98165.44;;;25.84;55.27
42519;BME280;28147;47.520;18.920;2023-07-24T02:12:33;98168.38;;;25.91;55.00
42519;BME280;28147;47.520;18.920;2023-07-24T02:14:58;98163.75;;;25.91;55.17
42519;BME280;28147;47.520;18.920;2023-07-24T02:17:24;98158.97;;;26.01;54.77
42519;BME280;28147;47.520;18.920;2023-07-24T02:19:50;98175.22;;;25.85;55.38
42519;BME280;28147;47.520;18.920;2023-07-24T02:22:15;98168.69;;;25.77;55.40
42519;BME280;28147;47.520;18.920;2023-07-24T02:24:41;98178.50;;;25.90;55.22
42519;BME280;28147;47.520;18.920;2023-07-24T02:27:06;98166.00;;;25.89;55.11
42519;BME280;28147;47.520;18.920;2023-07-24T02:29:32;98168.72;;;26.02;55.10
42519;BME280;28147;47.520;18.920;2023-07-24T02:31:58;98163.16;;;25.98;54.84
42519;BME280;28147;47.520;18.920;2023-07-24T02:34:24;98157.47;;;25.79;55.21
42519;BME280;28147;47.520;18.920;2023-07-24T02:36:54;98168.38;;;25.91;55.19
42519;BME280;28147;47.520;18.920;2023-07-24T02:39:20;98170.19;;;25.87;55.30
42519;BME280;28147;47.520;18.920;2023-07-24T02:41:47;98165.88;;;25.86;55.46
42519;BME280;28147;47.520;18.920;2023-07-24T02:44:13;98171.91;;;25.79;55.85
42519;BME280;28147;47.520;18.920;2023-07-24T02:46:38;98163.28;;;25.89;55.04
42519;BME280;28147;47.520;18.920;2023-07-24T02:49:04;98167.94;;;25.89;55.64
42519;BME280;28147;47.520;18.920;2023-07-24T02:51:30;98172.81;;;25.83;55.54
42519;BME280;28147;47.520;18.920;2023-07-24T02:53:55;98166.34;;;25.88;55.60
42519;BME280;28147;47.520;18.920;2023-07-24T02:56:21;98161.91;;;25.83;55.71
42519;BME280;28147;47.520;18.920;2023-07-24T02:58:46;98158.97;;;25.88;56.07
42519;BME280;28147;47.520;18.920;2023-07-24T03:01:12;98162.84;;;26.00;55.53
42519;BME280;28147;47.520;18.920;2023-07-24T03:03:40;98161.34;;;25.90;55.88
42519;BME280;28147;47.520;18.920;2023-07-24T03:06:05;98159.19;;;25.95;55.61
42519;BME280;28147;47.520;18.920;2023-07-24T03:08:31;98158.94;;;25.76;56.13
42519;BME280;28147;47.520;18.920;2023-07-24T03:10:57;98163.41;;;25.81;55.98
42519;BME280;28147;47.520;18.920;2023-07-24T03:13:22;98155.25;;;25.72;56.18
42519;BME280;28147;47.520;18.920;2023-07-24T03:15:52;98154.13;;;25.61;56.40
42519;BME280;28147;47.520;18.920;2023-07-24T03:18:18;98155.13;;;25.56;56.63
42519;BME280;28147;47.520;18.920;2023-07-24T03:20:43;98149.38;;;25.70;56.20
42519;BME280;28147;47.520;18.920;2023-07-24T03:23:08;98138.06;;;25.80;55.81
42519;BME280;28147;47.520;18.920;2023-07-24T03:25:34;98150.50;;;25.69;56.25
42519;BME280;28147;47.520;18.920;2023-07-24T03:28:00;98131.19;;;25.62;55.95
42519;BME280;28147;47.520;18.920;2023-07-24T03:30:26;98140.53;;;25.73;55.88
42519;BME280;28147;47.520;18.920;2023-07-24T03:32:51;98138.00;;;25.68;56.18
42519;BME280;28147;47.520;18.920;2023-07-24T03:35:17;98141.56;;;25.81;55.67
42519;BME280;28147;47.520;18.920;2023-07-24T03:37:42;98141.19;;;25.70;56.11
42519;BME280;28147;47.520;18.920;2023-07-24T03:40:08;98138.81;;;25.68;56.27
42519;BME280;28147;47.520;18.920;2023-07-24T03:42:33;98136.72;;;25.53;56.94
42519;BME280;28147;47.520;18.920;2023-07-24T03:44:59;98149.72;;;25.68;56.52
42519;BME280;28147;47.520;18.920;2023-07-24T03:47:24;98144.94;;;25.78;56.28
42519;BME280;28147;47.520;18.920;2023-07-24T03:49:50;98143.78;;;25.66;56.62
42519;BME280;28147;47.520;18.920;2023-07-24T03:52:16;98141.19;;;25.70;56.61
42519;BME280;28147;47.520;18.920;2023-07-24T03:54:41;98133.91;;;25.74;56.62
42519;BME280;28147;47.520;18.920;2023-07-24T03:57:07;98135.97;;;25.65;56.96
42519;BME280;28147;47.520;18.920;2023-07-24T03:59:32;98135.97;;;25.65;56.72
42519;BME280;28147;47.520;18.920;2023-07-24T04:01:58;98151.22;;;25.78;56.68
42519;BME280;28147;47.520;18.920;2023-07-24T04:04:24;98142.22;;;25.78;56.99
42519;BME280;28147;47.520;18.920;2023-07-24T04:06:49;98135.84;;;25.73;56.91
42519;BME280;28147;47.520;18.920;2023-07-24T04:09:16;98133.94;;;25.86;56.88
42519;BME280;28147;47.520;18.920;2023-07-24T04:11:43;98135.19;;;25.77;57.31
42519;BME280;28147;47.520;18.920;2023-07-24T04:14:08;98140.44;;;25.94;56.90
42519;BME280;28147;47.520;18.920;2023-07-24T04:16:34;98126.69;;;25.78;57.49
42519;BME280;28147;47.520;18.920;2023-07-24T04:18:59;98131.44;;;26.06;56.45
42519;BME280;28147;47.520;18.920;2023-07-24T04:21:24;98140.75;;;26.29;56.05
42519;BME280;28147;47.520;18.920;2023-07-24T04:23:50;98140.66;;;26.26;56.66
42519;BME280;28147;47.520;18.920;2023-07-24T04:26:15;98132.13;;;26.27;56.50
42519;BME280;28147;47.520;18.920;2023-07-24T04:28:41;98134.28;;;26.46;56.32
42519;BME280;28147;47.520;18.920;2023-07-24T04:31:06;98148.13;;;26.53;55.86
42519;BME280;28147;47.520;18.920;2023-07-24T04:33:31;98137.34;;;26.85;55.49
42519;BME280;28147;47.520;18.920;2023-07-24T04:35:57;98133.53;;;27.02;55.01
42519;BME280;28147;47.520;18.920;2023-07-24T04:38:22;98131.16;;;27.28;54.45
42519;BME280;28147;47.520;18.920;2023-07-24T04:40:48;98142.88;;;27.29;54.71
42519;BME280;28147;47.520;18.920;2023-07-24T04:43:13;98134.59;;;27.57;53.98
42519;BME280;28147;47.520;18.920;2023-07-24T04:45:39;98134.81;;;27.80;53.55
42519;BME280;28147;47.520;18.920;2023-07-24T04:48:04;98139.13;;;27.97;53.15
42519;BME280;28147;47.520;18.920;2023-07-24T04:50:30;98143.91;;;28.00;52.57
42519;BME280;28147;47.520;18.920;2023-07-24T04:52:55;98140.72;;;27.98;52.99
42519;BME280;28147;47.520;18.920;2023-07-24T04:55:21;98138.41;;;27.68;53.35
42519;BME280;28147;47.520;18.920;2023-07-24T04:57:47;98141.16;;;28.00;52.92
42519;BME280;28147;47.520;18.920;2023-07-24T05:00:13;98139.75;;;27.58;53.66
42519;BME280;28147;47.520;18.920;2023-07-24T05:02:39;98142.22;;;27.79;53.32
42519;BME280;28147;47.520;18.920;2023-07-24T05:05:05;98146.63;;;26.96;55.39
42519;BME280;28147;47.520;18.920;2023-07-24T05:07:31;98148.13;;;26.29;57.58
42519;BME280;28147;47.520;18.920;2023-07-24T05:09:56;98149.47;;;26.72;56.96
42519;BME280;28147;47.520;18.920;2023-07-24T05:12:22;98141.81;;;27.05;56.16
42519;BME280;28147;47.520;18.920;2023-07-24T05:14:47;98142.19;;;27.63;55.21
42519;BME280;28147;47.520;18.920;2023-07-24T05:17:13;98134.03;;;27.20;55.91
42519;BME280;28147;47.520;18.920;2023-07-24T05:19:38;98143.25;;;27.43;55.43
42519;BME280;28147;47.520;18.920;2023-07-24T05:22:03;98151.25;;;27.20;56.63
42519;BME280;28147;47.520;18.920;2023-07-24T05:24:29;98153.06;;;27.76;55.34
42519;BME280;28147;47.520;18.920;2023-07-24T05:26:54;98152.66;;;27.46;55.88
42519;BME280;28147;47.520;18.920;2023-07-24T05:29:20;98146.72;;;27.87;55.13
42519;BME280;28147;47.520;18.920;2023-07-24T05:31:45;98152.19;;;27.87;54.42
42519;BME280;28147;47.520;18.920;2023-07-24T05:34:11;98148.84;;;27.78;55.14
42519;BME280;28147;47.520;18.920;2023-07-24T05:36:36;98149.72;;;27.82;55.12
42519;BME280;28147;47.520;18.920;2023-07-24T05:39:01;98146.69;;;28.03;54.53
42519;BME280;28147;47.520;18.920;2023-07-24T05:41:27;98142.09;;;28.58;53.56
42519;BME280;28147;47.520;18.920;2023-07-24T05:43:52;98148.69;;;29.12;52.64
42519;BME280;28147;47.520;18.920;2023-07-24T05:46:17;98143.53;;;28.01;55.56
42519;BME280;28147;47.520;18.920;2023-07-24T05:48:43;98144.28;;;28.18;54.74
42519;BME280;28147;47.520;18.920;2023-07-24T05:51:08;98149.75;;;28.33;54.71
42519;BME280;28147;47.520;18.920;2023-07-24T05:53:34;98145.44;;;27.53;57.14
42519;BME280;28147;47.520;18.920;2023-07-24T05:56:00;98128.00;;;28.05;55.94
42519;BME280;28147;47.520;18.920;2023-07-24T05:58:26;98133.56;;;29.18;53.25
42519;BME280;28147;47.520;18.920;2023-07-24T06:00:52;98123.84;;;29.90;51.92
42519;BME280;28147;47.520;18.920;2023-07-24T06:03:22;98129.03;;;28.52;54.52
42519;BME280;28147;47.520;18.920;2023-07-24T06:05:50;98116.97;;;28.72;53.95
42519;BME280;28147;47.520;18.920;2023-07-24T06:08:15;98125.97;;;29.12;53.09
42519;BME280;28147;47.520;18.920;2023-07-24T06:10:41;98125.78;;;29.89;51.76
42519;BME280;28147;47.520;18.920;2023-07-24T06:13:06;98124.31;;;29.07;52.61
42519;BME280;28147;47.520;18.920;2023-07-24T06:15:31;98120.75;;;29.26;52.21
42519;BME280;28147;47.520;18.920;2023-07-24T06:17:57;98119.97;;;30.17;50.53
42519;BME280;28147;47.520;18.920;2023-07-24T06:20:22;98121.19;;;29.28;52.63
42519;BME280;28147;47.520;18.920;2023-07-24T06:22:47;98131.16;;;29.36;53.34
42519;BME280;28147;47.520;18.920;2023-07-24T06:25:13;98129.72;;;29.46;53.25
42519;BME280;28147;47.520;18.920;2023-07-24T06:27:38;98127.19;;;28.95;53.74
42519;BME280;28147;47.520;18.920;2023-07-24T06:30:04;98130.13;;;30.43;50.68
42519;BME280;28147;47.520;18.920;2023-07-24T06:32:29;98122.03;;;30.24;50.39
42519;BME280;28147;47.520;18.920;2023-07-24T06:34:55;98127.63;;;28.77;53.56
42519;BME280;28147;47.520;18.920;2023-07-24T06:37:20;98133.50;;;28.41;54.66
42519;BME280;28147;47.520;18.920;2023-07-24T06:39:46;98122.09;;;30.04;51.85
42519;BME280;28147;47.520;18.920;2023-07-24T06:42:11;98127.47;;;29.28;53.21
42519;BME280;28147;47.520;18.920;2023-07-24T06:44:36;98132.41;;;29.00;53.68
42519;BME280;28147;47.520;18.920;2023-07-24T06:47:02;98133.34;;;29.73;52.42
42519;BME280;28147;47.520;18.920;2023-07-24T06:49:27;98123.91;;;29.70;51.89
42519;BME280;28147;47.520;18.920;2023-07-24T06:51:52;98117.41;;;30.05;51.44
42519;BME280;28147;47.520;18.920;2023-07-24T06:54:18;98122.53;;;30.33;50.82
42519;BME280;28147;47.520;18.920;2023-07-24T06:56:43;98119.75;;;29.80;52.24
42519;BME280;28147;47.520;18.920;2023-07-24T06:59:09;98125.97;;;29.12;53.87
42519;BME280;28147;47.520;18.920;2023-07-24T07:01:34;98121.38;;;29.39;54.03
42519;BME280;28147;47.520;18.920;2023-07-24T07:03:59;98123.88;;;29.05;54.33
42519;BME280;28147;47.520;18.920;2023-07-24T07:06:25;98128.22;;;29.06;54.10
42519;BME280;28147;47.520;18.920;2023-07-24T07:08:50;98126.63;;;29.47;52.94
42519;BME280;28147;47.520;18.920;2023-07-24T07:11:15;98118.44;;;30.20;51.27
42519;BME280;28147;47.520;18.920;2023-07-24T07:13:41;98117.38;;;30.28;51.63
42519;BME280;28147;47.520;18.920;2023-07-24T07:16:06;98115.16;;;29.42;53.26
42519;BME280;28147;47.520;18.920;2023-07-24T07:18:32;98113.84;;;29.55;52.31
42519;BME280;28147;47.520;18.920;2023-07-24T07:20:57;98100.81;;;30.81;48.88
42519;BME280;28147;47.520;18.920;2023-07-24T07:23:22;98082.44;;;30.89;49.05
42519;BME280;28147;47.520;18.920;2023-07-24T07:25:48;98100.16;;;30.91;48.63
42519;BME280;28147;47.520;18.920;2023-07-24T07:28:15;98094.19;;;30.25;50.78
42519;BME280;28147;47.520;18.920;2023-07-24T07:30:42;98093.47;;;30.62;49.94
42519;BME280;28147;47.520;18.920;2023-07-24T07:33:07;98094.00;;;31.05;48.02
42519;BME280;28147;47.520;18.920;2023-07-24T07:35:33;98093.97;;;30.71;48.53
42519;BME280;28147;47.520;18.920;2023-07-24T07:37:59;98088.03;;;30.09;50.92
42519;BME280;28147;47.520;18.920;2023-07-24T07:40:25;98091.28;;;30.45;50.34
42519;BME280;28147;47.520;18.920;2023-07-24T07:42:52;98092.34;;;30.97;48.24
42519;BME280;28147;47.520;18.920;2023-07-24T07:45:18;98089.00;;;31.59;47.82
42519;BME280;28147;47.520;18.920;2023-07-24T07:47:44;98088.84;;;32.44;46.33
42519;BME280;28147;47.520;18.920;2023-07-24T07:50:09;98085.13;;;32.18;45.73
42519;BME280;28147;47.520;18.920;2023-07-24T07:52:35;98084.25;;;32.69;45.03
42519;BME280;28147;47.520;18.920;2023-07-24T07:55:00;98079.97;;;31.17;47.49
42519;BME280;28147;47.520;18.920;2023-07-24T07:57:26;98095.28;;;31.52;46.63
42519;BME280;28147;47.520;18.920;2023-07-24T07:59:51;98084.13;;;31.38;46.16
42519;BME280;28147;47.520;18.920;2023-07-24T08:02:16;98081.72;;;31.33;46.86
42519;BME280;28147;47.520;18.920;2023-07-24T08:04:42;98084.69;;;32.09;46.17
42519;BME280;28147;47.520;18.920;2023-07-24T08:07:07;98094.47;;;32.73;43.67
42519;BME280;28147;47.520;18.920;2023-07-24T08:09:32;98092.50;;;32.77;43.81
42519;BME280;28147;47.520;18.920;2023-07-24T08:11:58;98082.09;;;32.38;44.95
42519;BME280;28147;47.520;18.920;2023-07-24T08:14:24;98081.13;;;32.82;44.20
42519;BME280;28147;47.520;18.920;2023-07-24T08:16:50;98084.31;;;32.11;44.77
42519;BME280;28147;47.520;18.920;2023-07-24T08:19:16;98082.00;;;32.16;45.25
42519;BME280;28147;47.520;18.920;2023-07-24T08:21:41;98083.22;;;31.67;46.57
42519;BME280;28147;47.520;18.920;2023-07-24T08:24:07;98086.44;;;31.80;46.13
42519;BME280;28147;47.520;18.920;2023-07-24T08:26:32;98079.09;;;32.72;44.76
42519;BME280;28147;47.520;18.920;2023-07-24T08:28:58;98078.44;;;33.10;42.86
42519;BME280;28147;47.520;18.920;2023-07-24T08:31:23;98079.66;;;32.26;43.95
42519;BME280;28147;47.520;18.920;2023-07-24T08:33:49;98082.38;;;32.18;44.93
42519;BME280;28147;47.520;18.920;2023-07-24T08:36:14;98080.00;;;32.13;43.95
42519;BME280;28147;47.520;18.920;2023-07-24T08:38:40;98078.84;;;33.12;43.15
42519;BME280;28147;47.520;18.920;2023-07-24T08:41:12;98073.16;;;32.55;44.49
42519;BME280;28147;47.520;18.920;2023-07-24T08:43:40;98075.44;;;31.84;45.32
42519;BME280;28147;47.520;18.920;2023-07-24T08:46:07;98071.25;;;32.84;44.20
42519;BME280;28147;47.520;18.920;2023-07-24T08:48:34;98067.31;;;32.75;42.27
42519;BME280;28147;47.520;18.920;2023-07-24T08:51:07;98065.41;;;31.54;45.12
42519;BME280;28147;47.520;18.920;2023-07-24T08:53:34;98069.88;;;31.77;43.98
42519;BME280;28147;47.520;18.920;2023-07-24T08:56:06;98064.09;;;32.55;43.39
42519;BME280;28147;47.520;18.920;2023-07-24T08:58:33;98062.31;;;33.23;41.79
42519;BME280;28147;47.520;18.920;2023-07-24T09:01:00;98061.63;;;32.39;42.95
42519;BME280;28147;47.520;18.920;2023-07-24T09:03:25;98059.81;;;32.68;42.87
42519;BME280;28147;47.520;18.920;2023-07-24T09:05:51;98055.59;;;33.21;42.74
42519;BME280;28147;47.520;18.920;2023-07-24T09:08:17;98051.66;;;33.04;42.17
42519;BME280;28147;47.520;18.920;2023-07-24T09:10:42;98059.56;;;33.23;41.83
42519;BME280;28147;47.520;18.920;2023-07-24T09:13:08;98049.03;;;32.38;43.45
42519;BME280;28147;47.520;18.920;2023-07-24T09:15:43;98054.78;;;33.02;42.35
42519;BME280;28147;47.520;18.920;2023-07-24T09:18:09;98046.81;;;32.76;42.29
42519;BME280;28147;47.520;18.920;2023-07-24T09:20:40;98042.59;;;33.14;40.87
42519;BME280;28147;47.520;18.920;2023-07-24T09:23:06;98050.84;;;32.05;42.39
42519;BME280;28147;47.520;18.920;2023-07-24T09:25:33;98050.84;;;33.00;41.50
42519;BME280;28147;47.520;18.920;2023-07-24T09:27:59;98040.25;;;33.27;40.99
42519;BME280;28147;47.520;18.920;2023-07-24T09:30:25;98044.19;;;33.40;41.10
42519;BME280;28147;47.520;18.920;2023-07-24T09:32:54;98041.78;;;33.06;41.83
42519;BME280;28147;47.520;18.920;2023-07-24T09:35:20;98042.19;;;32.98;40.89
42519;BME280;28147;47.520;18.920;2023-07-24T09:37:47;98030.41;;;33.15;40.28
42519;BME280;28147;47.520;18.920;2023-07-24T09:40:14;98027.88;;;34.35;38.00
42519;BME280;28147;47.520;18.920;2023-07-24T09:42:40;98015.78;;;33.72;39.50
42519;BME280;28147;47.520;18.920;2023-07-24T09:45:06;98004.28;;;34.12;38.40
42519;BME280;28147;47.520;18.920;2023-07-24T09:47:34;98013.06;;;33.54;38.19
42519;BME280;28147;47.520;18.920;2023-07-24T09:50:03;98013.59;;;34.54;39.02
42519;BME280;28147;47.520;18.920;2023-07-24T09:52:29;97995.22;;;33.90;39.65
42519;BME280;28147;47.520;18.920;2023-07-24T09:55:12;98000.41;;;33.78;38.50
42519;BME280;28147;47.520;18.920;2023-07-24T09:57:39;98005.94;;;33.56;37.63
42519;BME280;28147;47.520;18.920;2023-07-24T10:00:04;98001.63;;;33.27;37.75
42519;BME280;28147;47.520;18.920;2023-07-24T10:02:32;97996.41;;;34.11;36.80
42519;BME280;28147;47.520;18.920;2023-07-24T10:04:58;97994.41;;;34.92;36.72
42519;BME280;28147;47.520;18.920;2023-07-24T10:07:24;97991.03;;;34.67;36.43
42519;BME280;28147;47.520;18.920;2023-07-24T10:09:50;97992.38;;;34.30;34.14
42519;BME280;28147;47.520;18.920;2023-07-24T10:12:18;97993.13;;;35.07;33.91
42519;BME280;28147;47.520;18.920;2023-07-24T10:14:45;97992.94;;;35.77;31.65
42519;BME280;28147;47.520;18.920;2023-07-24T10:17:12;97994.09;;;35.39;32.00
42519;BME280;28147;47.520;18.920;2023-07-24T10:19:42;97993.28;;;34.86;32.48
42519;BME280;28147;47.520;18.920;2023-07-24T10:22:17;97983.25;;;35.10;33.44
42519;BME280;28147;47.520;18.920;2023-07-24T10:24:44;97997.25;;;33.79;33.23
42519;BME280;28147;47.520;18.920;2023-07-24T10:27:11;97985.81;;;34.79;32.66
42519;BME280;28147;47.520;18.920;2023-07-24T10:29:37;97961.94;;;34.41;32.41
42519;BME280;28147;47.520;18.920;2023-07-24T10:32:03;97970.97;;;34.55;31.94
42519;BME280;28147;47.520;18.920;2023-07-24T10:34:39;97967.75;;;34.60;32.09
42519;BME280;28147;47.520;18.920;2023-07-24T10:37:07;97967.53;;;34.26;31.72
42519;BME280;28147;47.520;18.920;2023-07-24T10:39:38;97974.16;;;34.39;32.77
42519;BME280;28147;47.520;18.920;2023-07-24T10:42:09;97964.78;;;34.89;32.61
42519;BME280;28147;47.520;18.920;2023-07-24T10:44:35;97953.16;;;34.60;32.58
42519;BME280;28147;47.520;18.920;2023-07-24T10:47:01;97947.88;;;34.80;32.69
42519;BME280;28147;47.520;18.920;2023-07-24T10:49:29;97953.28;;;35.01;31.51
42519;BME280;28147;47.520;18.920;2023-07-24T10:51:56;97956.69;;;35.20;30.71
42519;BME280;28147;47.520;18.920;2023-07-24T10:54:21;97947.19;;;35.66;31.31
42519;BME280;28147;47.520;18.920;2023-07-24T10:56:47;97939.03;;;35.44;31.24
42519;BME280;28147;47.520;18.920;2023-07-24T10:59:12;97941.03;;;34.95;32.20
42519;BME280;28147;47.520;18.920;2023-07-24T11:01:40;97934.66;;;35.05;32.11
42519;BME280;28147;47.520;18.920;2023-07-24T11:04:06;97931.88;;;35.09;30.54
42519;BME280;28147;47.520;18.920;2023-07-24T11:06:32;97928.44;;;34.91;31.38
42519;BME280;28147;47.520;18.920;2023-07-24T11:08:59;97924.91;;;35.35;31.06
42519;BME280;28147;47.520;18.920;2023-07-24T11:11:29;97913.22;;;35.58;30.36
42519;BME280;28147;47.520;18.920;2023-07-24T11:13:55;97905.75;;;35.55;32.03
42519;BME280;28147;47.520;18.920;2023-07-24T11:16:20;97914.84;;;34.55;32.22
42519;BME280;28147;47.520;18.920;2023-07-24T11:18:47;97919.34;;;34.24;32.82
42519;BME280;28147;47.520;18.920;2023-07-24T11:21:14;97910.53;;;33.45;33.23
42519;BME280;28147;47.520;18.920;2023-07-24T11:23:54;97902.97;;;34.61;32.04
42519;BME280;28147;47.520;18.920;2023-07-24T11:26:20;97905.94;;;34.85;32.95
42519;BME280;28147;47.520;18.920;2023-07-24T11:28:46;97896.94;;;34.74;32.06
42519;BME280;28147;47.520;18.920;2023-07-24T11:31:12;97885.78;;;34.84;31.82
42519;BME280;28147;47.520;18.920;2023-07-24T11:33:37;97873.66;;;35.20;31.74
42519;BME280;28147;47.520;18.920;2023-07-24T11:36:04;97857.34;;;35.29;30.52
42519;BME280;28147;47.520;18.920;2023-07-24T11:38:30;97862.06;;;35.70;30.93
42519;BME280;28147;47.520;18.920;2023-07-24T11:40:55;97854.16;;;35.30;30.30
42519;BME280;28147;47.520;18.920;2023-07-24T11:43:23;97848.59;;;34.89;31.14
42519;BME280;28147;47.520;18.920;2023-07-24T11:45:50;97846.56;;;35.00;31.80
42519;BME280;28147;47.520;18.920;2023-07-24T11:48:23;97834.69;;;35.03;31.68
42519;BME280;28147;47.520;18.920;2023-07-24T11:50:52;97847.03;;;34.88;32.44
42519;BME280;28147;47.520;18.920;2023-07-24T11:55:47;97839.78;;;34.60;31.31
42519;BME280;28147;47.520;18.920;2023-07-24T11:58:15;97828.34;;;34.58;31.89
42519;BME280;28147;47.520;18.920;2023-07-24T12:00:41;97837.09;;;35.01;30.73
42519;BME280;28147;47.520;18.920;2023-07-24T12:03:07;97829.88;;;35.07;30.95
42519;BME280;28147;47.520;18.920;2023-07-24T12:05:43;97833.88;;;35.41;30.43
42519;BME280;28147;47.520;18.920;2023-07-24T12:08:10;97828.56;;;35.57;29.52
42519;BME280;28147;47.520;18.920;2023-07-24T12:10:40;97829.34;;;34.82;31.08
42519;BME280;28147;47.520;18.920;2023-07-24T12:13:06;97820.97;;;35.65;29.56
42519;BME280;28147;47.520;18.920;2023-07-24T12:15:32;97821.81;;;35.62;30.90
42519;BME280;28147;47.520;18.920;2023-07-24T12:17:59;97805.19;;;35.27;30.88
42519;BME280;28147;47.520;18.920;2023-07-24T12:20:26;97808.00;;;34.82;30.49
42519;BME280;28147;47.520;18.920;2023-07-24T12:22:52;97810.38;;;34.80;30.70
42519;BME280;28147;47.520;18.920;2023-07-24T12:25:17;97814.81;;;34.71;30.18
42519;BME280;28147;47.520;18.920;2023-07-24T12:27:43;97815.00;;;34.94;30.51
42519;BME280;28147;47.520;18.920;2023-07-24T12:30:08;97801.91;;;34.98;31.09
42519;BME280;28147;47.520;18.920;2023-07-24T12:32:34;97798.56;;;34.76;30.59
42519;BME280;28147;47.520;18.920;2023-07-24T12:35:00;97788.38;;;34.66;31.83
42519;BME280;28147;47.520;18.920;2023-07-24T12:37:25;97791.53;;;35.78;31.71
42519;BME280;28147;47.520;18.920;2023-07-24T12:39:51;97780.47;;;35.09;30.56
42519;BME280;28147;47.520;18.920;2023-07-24T12:42:16;97773.06;;;34.99;31.43
42519;BME280;28147;47.520;18.920;2023-07-24T12:44:43;97774.88;;;35.47;30.75
42519;BME280;28147;47.520;18.920;2023-07-24T12:47:10;97775.41;;;35.69;30.98
42519;BME280;28147;47.520;18.920;2023-07-24T12:49:35;97767.78;;;35.77;31.26
42519;BME280;28147;47.520;18.920;2023-07-24T12:52:01;97769.81;;;35.42;32.18
42519;BME280;28147;47.520;18.920;2023-07-24T12:54:27;97759.84;;;35.48;32.69